Time;durP1;ratioP1;P1;durP2;ratioP2;P2;SDS_P1;SDS_P2;PMS_P1;PMS_P2;Temp;Humidity;BMP_temperature;BMP_pressure;BME280_temperature;BME280_humidity;BME280_pressure;Samples;Min_cycle;Max_cycle;Signal;HPM_P1;HPM_P2
2021/04/04 00:04:52;;;;;;;38.93;17.23;;;;;;;2.96;67.36;101404.70;5000370;56;1138759;-73
2021/04/04 00:10:21;;;;;;;43.55;20.90;;;;;;;2.96;67.20;101410.78;4974775;56;1138811;-73
2021/04/04 00:15:46;;;;;;;47.33;19.40;;;;;;;2.94;66.88;101407.36;5029709;57;1139506;-73
2021/04/04 00:21:12;;;;;;;42.40;14.90;;;;;;;2.88;66.54;101404.96;5028230;57;1138758;-74
2021/04/04 00:26:38;;;;;;;52.77;18.00;;;;;;;2.84;66.42;101408.56;5011655;56;1138954;-73
2021/04/04 00:32:04;;;;;;;78.50;25.87;;;;;;;2.85;66.37;101401.58;5006171;56;1139040;-73
2021/04/04 00:37:30;;;;;;;46.50;17.20;;;;;;;2.82;66.38;101403.38;4917533;58;1139079;-73
2021/04/04 00:42:56;;;;;;;27.83;11.03;;;;;;;2.63;65.69;101398.77;5060284;56;1138772;-73
2021/04/04 00:48:21;;;;;;;27.40;11.97;;;;;;;2.23;65.42;101409.11;5002313;56;1138686;-73
2021/04/04 00:53:47;;;;;;;36.63;14.33;;;;;;;2.01;66.18;101400.17;5071260;56;1139372;-73
2021/04/04 00:59:14;;;;;;;98.70;43.60;;;;;;;2.05;67.07;101399.20;4969707;57;1138744;-73
2021/04/04 01:04:41;;;;;;;102.60;35.85;;;;;;;2.11;67.22;101393.36;5080273;56;1138873;-73
2021/04/04 01:10:09;;;;;;;44.73;19.27;;;;;;;2.19;67.29;101394.88;4987090;57;1141028;-74
2021/04/04 01:15:39;;;;;;;52.10;19.00;;;;;;;2.20;66.99;101387.02;5085595;56;1138673;-73
2021/04/04 01:21:23;;;;;;;78.67;26.10;;;;;;;2.22;66.97;101389.58;5011493;56;1138960;-73
2021/04/04 01:27:25;;;;;;;71.03;23.67;;;;;;;2.20;66.73;101384.40;4983976;56;1139843;-73
2021/04/04 01:32:53;;;;;;;59.60;22.10;;;;;;;2.17;66.55;101371.44;5059689;56;1138768;-73
2021/04/04 01:38:23;;;;;;;40.50;14.10;;;;;;;2.12;66.43;101372.05;4994529;57;1138927;-73
2021/04/04 01:43:52;;;;;;;28.07;11.17;;;;;;;1.76;65.78;101370.02;5076624;55;1138786;-73
2021/04/04 01:49:20;;;;;;;15.43;6.43;;;;;;;1.44;66.18;101368.28;5014718;57;1138871;-73
2021/04/04 01:54:47;;;;;;;13.93;6.07;;;;;;;1.28;66.36;101360.45;5021453;56;1136823;-73
2021/04/04 02:00:20;;;;;;;13.27;6.27;;;;;;;1.16;67.06;101363.38;4964047;57;1136985;-73
2021/04/04 02:05:45;;;;;;;11.77;5.80;;;;;;;1.09;67.64;101365.27;4982959;56;1137382;-73
2021/04/04 02:11:17;;;;;;;10.07;5.80;;;;;;;1.23;68.29;101363.16;5175063;55;1136697;-73
2021/04/04 02:16:47;;;;;;;12.93;6.30;;;;;;;1.40;68.28;101365.33;5167891;55;1136629;-74
2021/04/04 02:22:13;;;;;;;17.73;5.70;;;;;;;1.53;68.15;101361.98;5069608;56;1136871;-73
2021/04/04 02:27:42;;;;;;;14.37;7.57;;;;;;;1.60;67.90;101360.45;5027994;56;1136872;-73
2021/04/04 02:33:15;;;;;;;13.68;6.60;;;;;;;1.64;67.84;101366.00;4958090;57;1137098;-74
2021/04/04 02:38:48;;;;;;;18.07;7.10;;;;;;;1.62;67.67;101357.36;4982020;57;1137020;-73
2021/04/04 02:44:14;;;;;;;7.65;4.75;;;;;;;1.43;66.71;101358.75;5016525;56;1136941;-73
2021/04/04 02:49:43;;;;;;;15.77;6.87;;;;;;;1.02;66.51;101371.54;5138928;55;1134604;-73
2021/04/04 02:55:11;;;;;;;17.42;5.35;;;;;;;0.69;66.90;101369.30;5186687;55;1136893;-72
2021/04/04 03:00:40;;;;;;;11.73;5.80;;;;;;;0.56;67.89;101370.03;5167854;55;1137072;-73
2021/04/04 03:06:08;;;;;;;19.70;10.27;;;;;;;0.70;68.77;101359.29;5175279;54;1136698;-73
2021/04/04 03:11:34;;;;;;;18.80;9.00;;;;;;;0.89;69.01;101354.50;5187821;56;1138882;-73
2021/04/04 03:17:01;;;;;;;29.17;12.00;;;;;;;1.05;68.92;101357.14;5174941;55;1137067;-73
2021/04/04 03:22:29;;;;;;;38.75;10.25;;;;;;;1.16;68.93;101356.41;5175591;55;1138942;-73
2021/04/04 03:27:57;;;;;;;43.50;11.13;;;;;;;1.25;69.12;101351.41;5169053;54;1138756;-73
2021/04/04 03:33:24;;;;;;;47.83;15.63;;;;;;;1.33;69.19;101354.69;5168796;55;1138750;-74
2021/04/04 03:38:52;;;;;;;49.30;12.07;;;;;;;1.36;69.13;101347.64;5191039;55;1139354;-73
2021/04/04 03:44:24;;;;;;;49.80;10.55;;;;;;;1.22;68.10;101353.63;5188535;55;1138966;-73
2021/04/04 03:49:51;;;;;;;47.38;15.13;;;;;;;0.93;68.08;101356.98;5180479;55;1138987;-73
2021/04/04 03:55:21;;;;;;;48.33;12.93;;;;;;;0.73;68.78;101359.23;5185168;55;1138955;-73
2021/04/04 04:00:49;;;;;;;51.30;16.00;;;;;;;0.84;69.70;101358.52;5163767;55;1138910;-73
2021/04/04 04:06:14;;;;;;;44.48;13.40;;;;;;;0.98;70.17;101359.03;5183021;55;1138978;-73
2021/04/04 04:11:47;;;;;;;42.03;12.87;;;;;;;1.10;70.25;101361.77;5187560;55;1138917;-73
2021/04/04 04:17:14;;;;;;;40.23;15.27;;;;;;;1.16;70.02;101355.11;5183124;55;1138816;-74
2021/04/04 04:22:41;;;;;;;47.63;13.43;;;;;;;1.16;69.80;101361.63;5174749;55;1138683;-73
2021/04/04 04:28:10;;;;;;;25.37;10.40;;;;;;;1.11;69.06;101360.88;5151440;55;1139269;-73
2021/04/04 04:33:36;;;;;;;27.10;11.37;;;;;;;0.83;68.50;101362.01;5109647;55;1138700;-73
2021/04/04 04:39:06;;;;;;;25.53;9.23;;;;;;;0.73;68.81;101355.32;5151713;55;1138697;-73
2021/04/04 04:44:32;;;;;;;24.77;10.37;;;;;;;0.48;68.80;101354.16;5132162;55;1136676;-73
2021/04/04 04:49:57;;;;;;;26.97;9.97;;;;;;;0.28;69.22;101356.78;5167898;55;1138738;-73
2021/04/04 04:55:26;;;;;;;19.85;9.45;;;;;;;0.16;69.70;101357.02;5206692;55;1136574;-72
2021/04/04 05:00:52;;;;;;;17.07;6.80;;;;;;;0.17;70.39;101353.53;5270413;55;1136627;-73
2021/04/04 05:06:19;;;;;;;25.97;8.57;;;;;;;0.18;70.44;101346.59;5270724;55;1137051;-74
2021/04/04 05:11:48;;;;;;;15.53;7.10;;;;;;;0.10;70.54;101346.77;5031761;57;1136660;-73
2021/04/04 05:17:13;;;;;;;25.30;8.07;;;;;;;-0.01;70.89;101360.01;4983287;57;1136754;-73
2021/04/04 05:22:40;;;;;;;15.60;6.47;;;;;;;-0.02;71.20;101361.34;5006731;56;1138750;-72
2021/04/04 05:28:06;;;;;;;12.67;5.30;;;;;;;0.02;71.57;101367.30;4991355;57;1138794;-74
2021/04/04 05:33:37;;;;;;;12.90;5.70;;;;;;;0.03;72.03;101364.67;5042630;56;1137325;-73
2021/04/04 05:39:02;;;;;;;11.57;4.97;;;;;;;0.01;72.53;101366.45;5031809;57;1136823;-73
2021/04/04 05:44:58;;;;;;;9.07;3.67;;;;;;;0.07;73.17;101360.27;5064484;56;1136799;-73
2021/04/04 05:50:30;;;;;;;13.57;4.33;;;;;;;0.19;73.75;101361.31;5038917;56;1134768;-73
2021/04/04 05:56:15;;;;;;;9.80;5.53;;;;;;;0.29;74.06;101357.64;4859006;59;1137074;-73
2021/04/04 06:02:06;;;;;;;10.30;5.33;;;;;;;0.36;74.29;101354.00;4847416;59;1134739;-73
2021/04/04 06:08:07;;;;;;;14.23;5.60;;;;;;;0.58;74.98;101351.33;4878648;59;1136783;-73
2021/04/04 06:13:48;;;;;;;10.27;5.00;;;;;;;0.79;75.21;101348.64;4870697;59;1136761;-74
2021/04/04 06:19:41;;;;;;;15.28;6.37;;;;;;;1.20;75.87;101334.61;4913231;58;1137004;-73
2021/04/04 06:25:17;;;;;;;8.80;4.67;;;;;;;1.20;75.87;101334.61;4912868;57;1136738;-75
2021/04/04 06:31:10;;;;;;;8.77;4.70;;;;;;;1.49;75.95;101346.86;4949739;57;1134642;-73
2021/04/04 06:36:44;;;;;;;8.18;4.22;;;;;;;1.57;76.30;101342.28;4892810;58;1134549;-73
2021/04/04 06:42:13;;;;;;;13.77;4.13;;;;;;;1.62;76.18;101335.20;5025040;56;1135243;-73
2021/04/04 06:48:07;;;;;;;9.43;5.20;;;;;;;1.74;76.46;101346.59;4960329;57;1136693;-73
2021/04/04 06:54:00;;;;;;;7.53;4.13;;;;;;;1.95;76.63;101346.44;4921160;57;1134677;-73
2021/04/04 06:59:56;;;;;;;11.77;6.00;;;;;;;2.12;76.96;101339.42;5008419;56;1134780;-73
2021/04/04 07:05:25;;;;;;;6.77;4.13;;;;;;;2.33;77.20;101343.13;5038185;56;1136705;-72
2021/04/04 07:11:11;;;;;;;9.23;3.83;;;;;;;2.54;76.94;101340.31;5092491;55;1135155;-73
2021/04/04 07:17:33;;;;;;;10.60;4.90;;;;;;;2.77;76.99;101341.28;5134469;55;1134694;-73
2021/04/04 07:23:33;;;;;;;174.47;108.40;;;;;;;3.02;76.45;101336.13;5116931;55;1136825;-72
2021/04/04 07:29:31;;;;;;;31.93;15.97;;;;;;;3.31;76.45;101334.27;5149178;55;1142946;-73
2021/04/04 07:35:01;;;;;;;23.17;13.00;;;;;;;3.43;74.96;101329.92;5133988;55;1139434;-73
2021/04/04 07:40:33;;;;;;;54.40;25.02;;;;;;;3.67;74.92;101329.48;5120296;55;1139840;-73
2021/04/04 07:46:14;;;;;;;5.20;2.73;;;;;;;3.84;73.63;101331.03;5175027;55;1138759;-72
2021/04/04 07:51:42;;;;;;;9.53;3.33;;;;;;;3.98;72.42;101331.38;5146533;55;1134832;-73
2021/04/04 07:57:22;;;;;;;3.67;2.20;;;;;;;4.09;73.15;101321.37;5042264;56;1134558;-73
2021/04/04 08:02:53;;;;;;;2.30;1.63;;;;;;;4.35;72.47;101324.75;5074657;56;1134794;-73
2021/04/04 08:08:31;;;;;;;2.77;1.98;;;;;;;4.45;68.91;101323.01;5001787;56;1134857;-72
2021/04/04 08:14:08;;;;;;;3.47;1.30;;;;;;;4.58;68.80;101326.84;5025597;56;1134720;-73
2021/04/04 08:19:34;;;;;;;2.70;1.30;;;;;;;4.77;67.96;101324.34;5077470;56;1134637;-73
2021/04/04 08:25:04;;;;;;;1.23;1.13;;;;;;;4.76;65.87;101313.92;5099937;56;1134560;-73
2021/04/04 08:30:47;;;;;;;3.07;1.60;;;;;;;4.84;64.18;101305.30;5236969;54;1134582;-72
2021/04/04 08:36:19;;;;;;;2.20;1.50;;;;;;;4.97;64.72;101301.70;5252285;54;1135015;-74
2021/04/04 08:41:48;;;;;;;6.60;4.42;;;;;;;5.11;64.61;101306.77;5147377;55;1134739;-73
2021/04/04 08:47:32;;;;;;;46.40;23.70;;;;;;;5.42;63.90;101297.11;5129526;55;1134420;-73
2021/04/04 08:53:05;;;;;;;22.70;9.73;;;;;;;5.56;63.43;101301.30;5129095;55;1138876;-73
2021/04/04 08:58:40;;;;;;;46.63;17.07;;;;;;;5.74;63.81;101293.06;5090233;56;1136810;-73
2021/04/04 09:04:08;;;;;;;5.10;3.50;;;;;;;5.87;62.17;101286.33;5073278;56;1138950;-74
2021/04/04 09:09:45;;;;;;;9.73;5.27;;;;;;;6.05;60.45;101292.54;5157304;55;1134671;-74
2021/04/04 09:15:13;;;;;;;2.83;1.47;;;;;;;6.06;60.48;101277.17;5105496;56;1135189;-75
2021/04/04 09:20:43;;;;;;;32.27;11.10;;;;;;;6.16;60.13;101278.90;5093389;56;1134810;-74
2021/04/04 09:26:10;;;;;;;11.37;5.47;;;;;;;6.32;60.42;101268.05;5088478;55;1139122;-73
2021/04/04 09:31:38;;;;;;;4.10;2.30;;;;;;;6.42;58.37;101262.73;5132728;56;1137187;-74
2021/04/04 09:37:04;;;;;;;4.17;1.80;;;;;;;6.57;57.02;101251.97;5080157;56;1134561;-73
2021/04/04 09:42:32;;;;;;;5.63;1.60;;;;;;;6.65;56.55;101248.02;5075954;56;1134566;-74
2021/04/04 09:47:57;;;;;;;5.73;2.93;;;;;;;6.70;55.24;101246.02;5074729;56;1134592;-73
2021/04/04 09:53:49;;;;;;;1.70;1.20;;;;;;;6.83;55.10;101244.09;5155447;55;1134865;-73
2021/04/04 09:59:19;;;;;;;1.73;1.07;;;;;;;7.03;51.75;101238.64;5115110;56;1134757;-73
2021/04/04 10:04:46;;;;;;;2.23;1.60;;;;;;;7.11;50.47;101220.70;5042152;56;1134885;-74
2021/04/04 10:10:14;;;;;;;3.00;1.17;;;;;;;7.24;47.74;101211.23;5135654;55;1134832;-73
2021/04/04 10:15:52;;;;;;;0.70;0.70;;;;;;;7.32;47.82;101209.53;5098610;55;1134607;-72
2021/04/04 10:21:18;;;;;;;3.83;1.72;;;;;;;7.16;47.43;101198.11;5059274;56;1134680;-72
2021/04/04 10:26:43;;;;;;;1.90;1.10;;;;;;;7.26;48.90;101199.31;5139240;55;1135077;-72
2021/04/04 10:32:09;;;;;;;1.87;1.10;;;;;;;7.51;49.36;101185.68;5093387;56;1134814;-72
2021/04/04 10:37:36;;;;;;;2.80;1.70;;;;;;;7.63;47.47;101174.52;5047843;56;1134821;-72
2021/04/04 10:43:01;;;;;;;5.27;0.90;;;;;;;7.70;46.15;101170.13;5034594;57;1134749;-72
2021/04/04 10:48:29;;;;;;;4.00;1.10;;;;;;;7.81;47.73;101164.25;5025963;57;1134553;-72
2021/04/04 10:53:55;;;;;;;3.47;1.40;;;;;;;7.96;47.07;101166.49;5033536;57;1134630;-72
2021/04/04 10:59:20;;;;;;;2.35;0.90;;;;;;;8.17;46.07;101145.99;5061407;56;1135020;-72
2021/04/04 11:04:47;;;;;;;1.30;1.20;;;;;;;8.29;44.77;101134.27;5030859;57;1135219;-72
2021/04/04 11:10:13;;;;;;;3.90;1.43;;;;;;;8.38;45.93;101126.34;5038690;56;1134599;-73
2021/04/04 11:15:43;;;;;;;2.07;1.30;;;;;;;8.55;44.64;101122.72;5068240;56;1135017;-72
2021/04/04 11:21:21;;;;;;;1.80;1.17;;;;;;;8.50;45.49;101123.45;5049146;55;1134476;-72
2021/04/04 11:26:57;;;;;;;1.43;1.33;;;;;;;8.69;43.01;101109.08;5032415;56;1134707;-73
2021/04/04 11:32:22;;;;;;;5.03;3.75;;;;;;;8.58;44.32;101098.30;4948284;57;1134665;-72
2021/04/04 11:37:47;;;;;;;56.23;20.50;;;;;;;8.78;46.96;101090.05;4944018;57;1134694;-72
2021/04/04 11:43:29;;;;;;;8.90;4.80;;;;;;;8.84;43.83;101086.20;4910342;58;1139038;-73
2021/04/04 11:48:54;;;;;;;7.80;1.77;;;;;;;8.90;45.25;101075.25;5062528;56;1134992;-72
2021/04/04 11:54:50;;;;;;;3.27;2.07;;;;;;;9.08;43.78;101074.12;4959530;58;1135364;-72
2021/04/04 12:00:19;;;;;;;3.23;1.00;;;;;;;9.28;42.49;101053.08;4972442;57;1134926;-72
2021/04/04 12:05:45;;;;;;;2.47;1.50;;;;;;;9.41;40.67;101048.70;4973162;58;1134548;-72
2021/04/04 12:11:10;;;;;;;6.00;3.27;;;;;;;9.51;41.21;101024.70;4981504;57;1136995;-72
2021/04/04 12:16:49;;;;;;;3.53;1.87;;;;;;;9.47;41.52;101013.97;5050861;56;1136778;-72
2021/04/04 12:22:16;;;;;;;1.53;1.10;;;;;;;9.51;40.64;101007.55;5096252;56;1136860;-72
2021/04/04 12:27:44;;;;;;;3.93;1.40;;;;;;;9.57;40.21;100997.06;5053861;56;1136895;-72
2021/04/04 12:33:20;;;;;;;1.33;1.10;;;;;;;9.67;40.08;100989.37;5066564;56;1136682;-72
2021/04/04 12:38:46;;;;;;;3.13;1.07;;;;;;;9.62;39.30;100978.29;5075166;56;1136921;-72
2021/04/04 12:44:33;;;;;;;10.03;6.10;;;;;;;9.72;39.33;100956.44;5044936;56;1136711;-72
2021/04/04 12:50:09;;;;;;;0.98;0.93;;;;;;;9.72;38.78;100951.16;4920224;58;1138948;-72
2021/04/04 12:55:35;;;;;;;53.03;16.87;;;;;;;9.78;40.01;100936.67;5078308;56;1136895;-72
2021/04/04 13:01:00;;;;;;;2.53;1.43;;;;;;;9.97;40.37;100929.66;5062193;56;1140953;-72
2021/04/04 13:06:25;;;;;;;22.25;8.00;;;;;;;9.92;41.52;100922.55;5045503;56;1136685;-72
2021/04/04 13:11:51;;;;;;;6.28;3.22;;;;;;;10.03;38.58;100916.05;5071590;56;1138741;-72
2021/04/04 13:17:16;;;;;;;31.53;13.43;;;;;;;10.12;39.04;100906.14;5013647;57;1138952;-72
2021/04/04 13:22:42;;;;;;;5.60;2.33;;;;;;;10.09;39.17;100897.95;5049021;56;1143137;-72
2021/04/04 13:28:08;;;;;;;4.73;3.43;;;;;;;10.17;39.74;100885.53;4967652;57;1138928;-72
2021/04/04 13:33:33;;;;;;;2.57;0.80;;;;;;;10.29;40.33;100889.14;5078455;56;1138854;-72
2021/04/04 13:38:59;;;;;;;2.13;1.30;;;;;;;10.35;39.10;100875.50;5054561;56;1138863;-72
2021/04/04 13:44:26;;;;;;;3.83;1.57;;;;;;;10.47;39.71;100866.69;5041222;56;1138812;-72
2021/04/04 13:49:52;;;;;;;5.17;2.17;;;;;;;10.63;39.88;100855.38;5073638;56;1138719;-72
2021/04/04 13:55:28;;;;;;;3.17;1.93;;;;;;;10.66;38.62;100845.91;5068731;56;1138846;-72
2021/04/04 14:00:54;;;;;;;2.57;1.80;;;;;;;10.58;38.64;100832.38;5067922;56;1139073;-73
2021/04/04 14:06:20;;;;;;;2.35;1.10;;;;;;;10.67;38.64;100826.43;5083094;56;1139494;-72
2021/04/04 14:11:46;;;;;;;2.03;1.00;;;;;;;10.69;38.12;100811.30;5044058;56;1139166;-72
2021/04/04 14:17:12;;;;;;;2.80;1.10;;;;;;;10.82;38.15;100800.17;4984434;57;1138705;-72
2021/04/04 14:22:36;;;;;;;0.87;0.60;;;;;;;10.70;37.36;100786.98;4913751;57;1138859;-72
2021/04/04 14:28:03;;;;;;;4.67;2.57;;;;;;;10.67;36.58;100774.84;5065969;56;1139360;-72
2021/04/04 14:33:29;;;;;;;3.10;1.80;;;;;;;10.73;38.31;100759.83;5001532;57;1139128;-72
2021/04/04 14:38:55;;;;;;;5.70;2.17;;;;;;;10.80;36.59;100747.00;5006084;57;1138943;-71
2021/04/04 14:49:45;;;;;;;5.00;1.83;;;;;;;10.92;38.48;100732.84;5072312;56;1143396;-72
2021/04/04 14:55:11;;;;;;;1.80;1.10;;;;;;;10.90;37.48;100725.49;5076998;56;1138943;-72
2021/04/04 15:00:38;;;;;;;4.20;2.00;;;;;;;10.88;37.08;100716.34;5083343;56;1138936;-72
2021/04/04 15:06:13;;;;;;;2.20;1.90;;;;;;;10.87;38.07;100698.78;5059036;56;1138912;-72
2021/04/04 15:11:35;;;;;;;2.20;1.20;;;;;;;11.08;38.48;100683.55;5095021;55;1139049;-71
2021/04/04 15:17:01;;;;;;;2.03;1.07;;;;;;;11.15;36.31;100677.65;5070325;56;1138820;-72
2021/04/04 15:22:27;;;;;;;2.50;1.67;;;;;;;11.09;37.03;100685.24;4940479;57;1139021;-76
2021/04/04 15:27:53;;;;;;;3.43;1.20;;;;;;;11.04;36.64;100664.41;5062812;56;1138668;-77
2021/04/04 15:33:22;;;;;;;1.70;1.17;;;;;;;11.06;36.06;100672.23;5042262;56;1148479;-75
2021/04/04 15:38:48;;;;;;;4.37;3.90;;;;;;;11.07;35.76;100672.60;4927470;58;1138904;-74
2021/04/04 15:44:13;;;;;;;1.70;1.33;;;;;;;11.05;36.62;100663.45;5079133;56;1138919;-75
2021/04/04 15:49:39;;;;;;;5.03;3.30;;;;;;;11.07;36.13;100648.78;5072031;56;1139573;-76
2021/04/04 15:55:06;;;;;;;2.50;1.47;;;;;;;10.97;35.20;100637.23;5032771;56;1138756;-77
2021/04/04 16:00:33;;;;;;;2.05;1.15;;;;;;;10.93;36.84;100630.00;5061961;56;1139011;-75
2021/04/04 16:05:59;;;;;;;3.07;1.50;;;;;;;10.88;36.45;100623.73;5082833;56;1139163;-76
2021/04/04 16:11:36;;;;;;;4.97;2.10;;;;;;;10.84;37.42;100617.02;5035987;56;1139046;-78
2021/04/04 16:17:00;;;;;;;3.13;0.90;;;;;;;10.82;36.19;100602.22;5066948;56;1139196;-76
2021/04/04 16:22:26;;;;;;;1.37;1.27;;;;;;;10.79;36.70;100599.80;4945817;57;1138706;-79
2021/04/04 16:28:00;;;;;;;3.03;1.10;;;;;;;10.75;37.79;100596.54;5076400;56;1138966;-74
2021/04/04 16:33:25;;;;;;;3.07;1.43;;;;;;;10.62;37.01;100589.67;5112680;56;1138917;-73
2021/04/04 16:38:50;;;;;;;2.93;1.27;;;;;;;10.45;37.98;100578.58;5078040;56;1138772;-76
2021/04/04 16:44:18;;;;;;;114.36;46.44;;;;;;;10.36;38.41;100577.12;5083965;56;1139080;-74
2021/04/04 16:49:43;;;;;;;4.27;2.37;;;;;;;10.27;38.47;100569.39;5058814;56;1145445;-73
2021/04/04 16:55:09;;;;;;;49.63;17.53;;;;;;;10.23;39.39;100558.20;4898102;58;1138819;-76
2021/04/04 17:00:35;;;;;;;33.18;13.88;;;;;;;10.23;39.33;100555.55;5081093;57;1143099;-78
2021/04/04 17:06:01;;;;;;;39.17;18.07;;;;;;;10.12;38.20;100553.33;5065500;56;1143022;-75
2021/04/04 17:11:27;;;;;;;71.75;29.48;;;;;;;9.98;39.50;100550.40;4999763;57;1143157;-74
2021/04/04 17:16:53;;;;;;;24.97;10.83;;;;;;;9.93;39.93;100538.00;5051606;56;1140905;-73
2021/04/04 17:22:19;;;;;;;112.67;35.17;;;;;;;9.80;40.08;100532.80;5026448;56;1141045;-76
2021/04/04 17:27:45;;;;;;;32.13;10.37;;;;;;;9.73;40.64;100526.77;5008892;57;1143298;-72
2021/04/04 17:33:11;;;;;;;235.23;59.40;;;;;;;9.66;41.07;100524.20;5051791;56;1140788;-74
2021/04/04 17:38:37;;;;;;;139.13;33.70;;;;;;;9.55;41.10;100516.23;5031916;57;1142915;-76
2021/04/04 17:44:03;;;;;;;117.83;38.60;;;;;;;9.45;41.68;100513.44;5068051;56;1141040;-77
2021/04/04 17:49:29;;;;;;;56.42;20.35;;;;;;;9.34;42.23;100503.64;5070563;56;1140860;-74
2021/04/04 17:54:55;;;;;;;122.80;48.30;;;;;;;9.27;42.61;100505.53;5058954;56;1138827;-71
2021/04/04 18:00:23;;;;;;;103.03;44.07;;;;;;;9.20;42.73;100500.31;5068145;56;1141027;-73
2021/04/04 18:05:52;;;;;;;232.57;112.30;;;;;;;9.11;42.92;100489.96;5064859;56;1141764;-74
2021/04/04 18:11:15;;;;;;;368.47;149.07;;;;;;;9.06;43.18;100480.20;4939479;58;1143111;-77
2021/04/04 18:16:41;;;;;;;593.80;244.47;;;;;;;8.99;43.63;100481.14;4988154;58;1143130;-75
2021/04/04 18:22:07;;;;;;;422.97;150.63;;;;;;;8.89;43.97;100466.06;5073043;57;1143312;-75
2021/04/04 18:27:33;;;;;;;324.02;99.05;;;;;;;8.78;44.18;100465.52;5076387;56;1143452;-75
2021/04/04 18:32:58;;;;;;;143.13;38.73;;;;;;;8.66;44.31;100461.11;5076052;56;1140942;-71
2021/04/04 18:38:22;;;;;;;147.83;38.53;;;;;;;8.54;44.40;100459.34;5075700;56;1140855;-72
2021/04/04 18:43:48;;;;;;;77.07;20.40;;;;;;;8.45;44.72;100451.11;5081384;57;1140856;-71
2021/04/04 18:49:15;;;;;;;22.80;6.50;;;;;;;8.42;44.81;100457.91;5078234;56;1138744;-72
2021/04/04 18:54:40;;;;;;;189.63;59.53;;;;;;;8.36;44.92;100446.50;5069827;57;1136529;-73
2021/04/04 19:00:12;;;;;;;188.37;58.83;;;;;;;8.25;45.08;100444.21;5078678;56;1140849;-72
2021/04/04 19:05:38;;;;;;;31.47;11.60;;;;;;;8.12;45.35;100442.40;5053142;56;1140562;-72
2021/04/04 19:11:18;;;;;;;88.93;33.57;;;;;;;8.02;45.54;100433.92;5065786;56;1138892;-71
2021/04/04 19:16:30;;;;;;;149.60;61.63;;;;;;;7.89;45.64;100417.28;5115216;56;1139115;-71
2021/04/04 19:21:56;;;;;;;70.03;30.70;;;;;;;7.72;45.86;100416.63;5084204;56;1140700;-71
2021/04/04 19:27:22;;;;;;;25.03;11.17;;;;;;;7.58;46.22;100402.70;5059886;56;1148972;-71
2021/04/04 19:32:47;;;;;;;33.40;15.07;;;;;;;7.49;46.45;100390.14;5082311;56;1138807;-71
2021/04/04 19:38:13;;;;;;;35.07;15.87;;;;;;;7.44;46.74;100390.47;5087435;56;1139002;-71
2021/04/04 19:43:39;;;;;;;21.97;7.83;;;;;;;7.36;46.94;100375.66;5049646;56;1138698;-72
2021/04/04 19:49:13;;;;;;;35.13;14.43;;;;;;;7.28;47.18;100375.33;5068829;57;1136915;-72
2021/04/04 19:54:58;;;;;;;76.73;32.23;;;;;;;7.18;47.38;100355.86;5054500;57;1138897;-73
2021/04/04 20:00:42;;;;;;;70.30;30.47;;;;;;;7.05;47.65;100353.16;5030731;56;1139338;-73
2021/04/04 20:06:19;;;;;;;100.17;40.13;;;;;;;6.95;48.03;100340.26;5034713;57;1138605;-72
2021/04/04 20:11:44;;;;;;;57.30;24.17;;;;;;;6.88;48.27;100335.02;4962792;58;1140949;-72
2021/04/04 20:17:16;;;;;;;49.93;20.80;;;;;;;6.82;48.61;100324.45;5144377;56;1138976;-72
2021/04/04 20:22:42;;;;;;;24.47;9.65;;;;;;;6.72;49.08;100317.27;5149138;56;1138652;-72
2021/04/04 20:28:10;;;;;;;19.77;8.30;;;;;;;6.66;49.51;100304.89;5135826;56;1136533;-72
2021/04/04 20:33:35;;;;;;;29.07;12.25;;;;;;;6.60;49.91;100300.02;4966543;58;1136653;-72
2021/04/04 20:39:04;;;;;;;54.63;22.83;;;;;;;6.57;50.18;100295.45;4979207;57;1138980;-72
2021/04/04 20:44:30;;;;;;;41.83;17.23;;;;;;;6.51;50.52;100276.98;4976432;57;1138714;-72
2021/04/04 20:49:55;;;;;;;29.13;10.43;;;;;;;6.45;50.81;100267.32;4974573;58;1138963;-72
2021/04/04 20:55:22;;;;;;;22.85;9.10;;;;;;;6.33;51.21;100267.18;4982487;57;1139572;-73
2021/04/04 21:00:48;;;;;;;23.13;10.83;;;;;;;6.24;51.62;100244.61;4974988;57;1136520;-72
2021/04/04 21:06:15;;;;;;;22.23;9.47;;;;;;;6.17;51.75;100228.39;4879708;58;1138491;-73
2021/04/04 21:11:43;;;;;;;21.02;10.50;;;;;;;6.12;52.33;100212.08;5002619;57;1137086;-73
2021/04/04 21:17:09;;;;;;;22.40;9.07;;;;;;;6.03;52.78;100207.90;5135793;55;1138618;-72
2021/04/04 21:22:38;;;;;;;30.80;12.07;;;;;;;5.96;53.23;100205.66;5170522;56;1136723;-72
2021/04/04 21:28:05;;;;;;;34.27;12.10;;;;;;;5.87;53.31;100195.72;5171758;56;1138614;-71
2021/04/04 21:33:30;;;;;;;19.50;9.10;;;;;;;5.83;53.77;100192.06;5167698;56;1138534;-71
2021/04/04 21:38:56;;;;;;;28.93;9.60;;;;;;;5.76;54.10;100187.69;5169548;56;1136649;-71
2021/04/04 21:44:21;;;;;;;20.17;8.90;;;;;;;5.70;54.75;100178.03;5161713;56;1256015;-72
2021/04/04 21:49:47;;;;;;;20.30;6.73;;;;;;;5.64;55.04;100165.70;5151571;55;1136927;-72
2021/04/04 21:55:14;;;;;;;23.47;7.10;;;;;;;5.60;55.73;100165.51;5168293;55;1137136;-72
2021/04/04 22:00:40;;;;;;;36.45;9.83;;;;;;;5.54;56.37;100159.78;5190663;55;1136739;-72
2021/04/04 22:06:06;;;;;;;17.17;7.03;;;;;;;5.50;56.54;100146.52;5192399;55;1136549;-72
2021/04/04 22:11:32;;;;;;;13.72;6.08;;;;;;;5.42;57.12;100132.55;5162973;55;1137573;-72
2021/04/04 22:17:10;;;;;;;13.07;5.33;;;;;;;5.40;57.27;100131.80;5142133;55;1136764;-72
2021/04/04 22:22:27;;;;;;;13.43;5.53;;;;;;;5.36;58.15;100130.77;5039220;57;1136723;-72
2021/04/04 22:27:55;;;;;;;14.17;5.07;;;;;;;5.29;58.04;100115.91;5127316;56;1137291;-72
2021/04/04 22:33:19;;;;;;;17.63;5.50;;;;;;;5.19;58.68;100098.60;5034912;57;1136842;-72
2021/04/04 22:38:45;;;;;;;13.57;5.10;;;;;;;5.14;59.40;100081.47;4983047;58;1136639;-72
2021/04/04 22:44:13;;;;;;;17.90;5.90;;;;;;;5.12;59.70;100068.92;4981801;58;1137074;-72
2021/04/04 22:49:38;;;;;;;10.45;3.92;;;;;;;5.03;60.25;100051.16;4922805;57;1136875;-72
2021/04/04 22:55:14;;;;;;;12.00;5.10;;;;;;;5.03;60.25;100051.16;4863786;57;1136697;-72
2021/04/04 23:00:40;;;;;;;11.53;5.00;;;;;;;4.97;60.87;100045.81;4943931;56;1136846;-72
2021/04/04 23:06:06;;;;;;;17.93;6.07;;;;;;;4.89;61.53;100034.48;4899088;58;1136405;-72
2021/04/04 23:11:31;;;;;;;12.07;5.30;;;;;;;4.89;61.57;100028.40;4906546;58;1136648;-73
2021/04/04 23:16:57;;;;;;;16.70;5.33;;;;;;;4.82;62.09;100012.70;4894458;58;1136694;-72
2021/04/04 23:22:23;;;;;;;26.50;8.17;;;;;;;4.75;62.50;99995.20;4926842;58;1136629;-72
2021/04/04 23:27:49;;;;;;;13.10;5.40;;;;;;;4.74;61.94;99985.66;4896527;58;1134581;-72
2021/04/04 23:33:20;;;;;;;20.70;5.40;;;;;;;4.84;61.95;99967.61;4961081;58;1134581;-71
2021/04/04 23:38:45;;;;;;;24.43;8.57;;;;;;;4.83;62.38;99952.82;4976933;56;1134571;-72
2021/04/04 23:44:11;;;;;;;10.70;4.40;;;;;;;4.72;62.64;99943.02;4983210;56;1134600;-72
2021/04/04 23:49:37;;;;;;;18.23;5.87;;;;;;;4.64;64.10;99928.70;4917017;57;1134797;-72
2021/04/04 23:55:03;;;;;;;14.63;4.55;;;;;;;4.59;63.39;99928.52;4947763;57;1134764;-72
